Terminal Aerodrome Forecast
Issued by NWS

Home | Current Version | Previous Version | Text Only | Print | Product List | Glossary On
Versions: 1 2 3 4 5 6 7 8 9 10 11 12 13 14
207
FTAK31 PAJN 202336
TAFAJN
TAF
PAJN 202336Z 2100/2124 12015KT P6SM -RA FEW006 SCT040 OVC060
      TEMPO 2100/2104 12018G28KT
     FM210900 10014KT 5SM -RA BR FEW005 SCT015 OVC030
     FM211800 12020G28KT 5SM -RA BR SCT015 OVC025 WS020/14040KT=

USA.gov is the U.S. government's official web portal to all federal, state and local government web resources and services.